Time;durP1;ratioP1;P1;durP2;ratioP2;P2;SDS_P1;SDS_P2;PMS_P1;PMS_P2;Temp;Humidity;BMP_temperature;BMP_pressure;BME280_temperature;BME280_humidity;BME280_pressure;Samples;Min_cycle;Max_cycle;Signal;HPM_P1;HPM_P2
2021/10/24 00:02:06;;;;;;;7.35;4.00;;;;;;;17.78;78.03;101753.53;5052805;28;20045;-68
2021/10/24 00:04:35;;;;;;;9.48;3.83;;;;;;;17.79;78.31;101752.63;5052478;28;20041;-67
2021/10/24 00:07:03;;;;;;;8.95;4.38;;;;;;;17.76;78.24;101758.88;5051739;28;20048;-67
2021/10/24 00:09:31;;;;;;;8.07;4.00;;;;;;;17.74;78.32;101757.97;5049503;28;20044;-67
2021/10/24 00:11:58;;;;;;;7.30;3.97;;;;;;;17.66;78.26;101750.81;5051716;28;20052;-68
2021/10/24 00:14:27;;;;;;;8.38;4.07;;;;;;;17.65;78.36;101752.63;5052232;28;20030;-67
2021/10/24 00:16:54;;;;;;;7.90;5.05;;;;;;;17.61;78.24;101752.59;5051571;28;20489;-68
2021/10/24 00:19:21;;;;;;;9.15;4.13;;;;;;;17.60;78.50;101746.31;5035729;28;20400;-67
2021/10/24 00:21:50;;;;;;;10.77;5.28;;;;;;;17.54;78.50;101747.19;5051726;28;20124;-67
2021/10/24 00:24:18;;;;;;;9.00;4.20;;;;;;;17.59;78.64;101743.66;5046776;28;20042;-67
2021/10/24 00:26:45;;;;;;;6.95;4.00;;;;;;;17.62;78.82;101743.69;5032413;28;20045;-67
2021/10/24 00:29:13;;;;;;;6.75;3.88;;;;;;;17.64;78.93;101739.25;5047428;28;20049;-68
2021/10/24 00:31:40;;;;;;;6.88;3.70;;;;;;;17.66;79.04;101740.13;5045000;28;20042;-68
2021/10/24 00:34:08;;;;;;;7.18;3.88;;;;;;;17.66;79.03;101740.13;5032263;28;20064;-66
2021/10/24 00:36:36;;;;;;;9.10;4.30;;;;;;;17.60;79.14;101735.63;5051825;28;20041;-68
2021/10/24 00:39:06;;;;;;;6.55;3.72;;;;;;;17.60;78.98;101732.97;5038442;28;20037;-67
2021/10/24 00:41:33;;;;;;;6.30;3.90;;;;;;;17.60;78.80;101732.06;5045382;28;20048;-68
2021/10/24 00:44:18;;;;;;;7.38;3.50;;;;;;;17.54;78.89;101733.84;5039192;28;20049;-67
2021/10/24 00:46:45;;;;;;;6.30;3.40;;;;;;;17.57;78.79;101724.06;5020929;28;20045;-67
2021/10/24 00:49:13;;;;;;;9.18;4.60;;;;;;;17.59;78.79;101733.84;5043429;28;20057;-67
2021/10/24 00:51:40;;;;;;;9.32;4.05;;;;;;;17.59;78.39;101725.81;5031559;28;20099;-67
2021/10/24 00:54:12;;;;;;;7.15;4.00;;;;;;;17.58;78.23;101726.75;5037394;28;20052;-67
2021/10/24 00:56:41;;;;;;;8.85;3.67;;;;;;;17.44;78.21;101724.03;5039465;28;20033;-67
2021/10/24 00:59:08;;;;;;;8.05;3.72;;;;;;;17.33;78.42;101730.19;5050709;28;20040;-67
2021/10/24 01:01:36;;;;;;;7.05;3.13;;;;;;;17.32;78.48;101724.00;5050817;28;20029;-68
2021/10/24 01:04:04;;;;;;;6.57;4.05;;;;;;;17.36;78.63;101722.22;5037954;28;20042;-68
2021/10/24 01:06:33;;;;;;;6.15;3.53;;;;;;;17.40;78.33;101722.22;5031933;28;20033;-67
2021/10/24 01:09:00;;;;;;;8.20;3.70;;;;;;;17.44;78.29;101715.13;5031243;28;20059;-67
2021/10/24 01:11:29;;;;;;;6.40;3.92;;;;;;;17.48;78.19;101706.22;5049722;28;20139;-67
2021/10/24 01:13:57;;;;;;;7.32;4.05;;;;;;;17.44;77.93;101705.34;5050289;28;20041;-67
2021/10/24 01:16:25;;;;;;;7.97;4.13;;;;;;;17.29;78.06;101705.28;5050262;28;20041;-67
2021/10/24 01:18:53;;;;;;;6.97;3.67;;;;;;;17.24;78.13;101700.84;5048588;28;20045;-67
2021/10/24 01:21:23;;;;;;;7.03;3.35;;;;;;;17.25;78.22;101702.63;5050478;28;20063;-68
2021/10/24 01:23:50;;;;;;;5.72;3.85;;;;;;;17.31;78.10;101697.28;5034767;28;20053;-67
2021/10/24 01:26:18;;;;;;;10.50;4.18;;;;;;;17.31;77.91;101689.28;5040492;28;20064;-68
2021/10/24 01:28:45;;;;;;;7.07;4.07;;;;;;;17.33;77.83;101695.50;5050110;28;20040;-68
2021/10/24 01:31:13;;;;;;;8.98;3.22;;;;;;;17.32;77.87;101688.41;5050618;28;20408;-68
2021/10/24 01:33:40;;;;;;;6.72;3.45;;;;;;;17.34;77.83;101681.28;5049959;28;20045;-67
2021/10/24 01:36:09;;;;;;;6.22;3.47;;;;;;;17.36;77.88;101683.06;5028240;28;20057;-67
2021/10/24 01:38:43;;;;;;;8.25;3.55;;;;;;;17.29;77.87;101677.72;5025652;28;20397;-68
2021/10/24 01:41:11;;;;;;;10.73;3.72;;;;;;;17.11;77.98;101676.78;5031622;28;20485;-68
2021/10/24 01:43:39;;;;;;;6.60;3.33;;;;;;;17.09;78.31;101677.66;5023700;28;20041;-68
2021/10/24 01:46:06;;;;;;;6.25;3.05;;;;;;;17.11;78.32;101681.22;5047618;28;20532;-67
2021/10/24 01:48:34;;;;;;;6.47;3.40;;;;;;;17.13;78.26;101674.13;5049415;28;20064;-68
2021/10/24 01:51:02;;;;;;;7.60;3.50;;;;;;;17.15;77.99;101675.00;5050836;28;20342;-67
2021/10/24 01:53:31;;;;;;;6.32;3.25;;;;;;;17.08;77.98;101675.84;5052178;28;20033;-68
2021/10/24 01:56:00;;;;;;;7.18;3.28;;;;;;;16.92;78.05;101674.03;5050179;28;20041;-67
2021/10/24 01:58:28;;;;;;;5.50;3.10;;;;;;;16.84;78.17;101673.09;5059845;28;20037;-67
2021/10/24 02:00:56;;;;;;;6.13;3.22;;;;;;;16.81;78.33;101667.72;5053317;28;20045;-68
2021/10/24 02:03:24;;;;;;;6.25;3.63;;;;;;;16.82;78.38;101669.53;5056927;28;20048;-67
2021/10/24 02:05:52;;;;;;;8.25;3.40;;;;;;;16.83;78.26;101668.66;5050980;28;20044;-67
2021/10/24 02:08:20;;;;;;;5.07;2.88;;;;;;;16.85;78.19;101665.13;5065667;28;20048;-67
2021/10/24 02:10:47;;;;;;;8.55;4.55;;;;;;;16.92;78.03;101663.38;5049641;28;20044;-67
2021/10/24 02:13:16;;;;;;;7.35;3.30;;;;;;;16.96;77.63;101666.03;5068554;28;20055;-68
2021/10/24 02:15:44;;;;;;;7.82;3.33;;;;;;;16.98;77.58;101664.28;5052369;28;20044;-67
2021/10/24 02:18:13;;;;;;;8.30;3.45;;;;;;;17.06;77.67;101667.88;5034167;28;20044;-67
2021/10/24 02:20:41;;;;;;;7.47;3.03;;;;;;;17.12;77.82;101667.00;5070242;28;20533;-67
2021/10/24 02:23:09;;;;;;;7.20;3.35;;;;;;;17.18;77.87;101661.69;5074124;28;20069;-67
2021/10/24 02:25:38;;;;;;;5.20;2.92;;;;;;;17.21;77.74;101669.69;5074103;28;20131;-67
2021/10/24 02:28:06;;;;;;;9.40;3.33;;;;;;;17.22;77.84;101666.13;5057935;28;20054;-68
2021/10/24 02:30:35;;;;;;;6.22;3.10;;;;;;;17.23;77.89;101661.69;5053996;28;20040;-68
2021/10/24 02:33:03;;;;;;;5.75;2.92;;;;;;;17.25;77.94;101662.59;5053987;28;20515;-68
2021/10/24 02:35:30;;;;;;;5.30;2.78;;;;;;;17.23;77.91;101664.34;5036186;28;20078;-68
2021/10/24 02:37:58;;;;;;;7.93;2.63;;;;;;;17.18;77.95;101659.00;5071602;28;20048;-67
2021/10/24 02:40:26;;;;;;;6.45;2.85;;;;;;;17.14;77.93;101658.09;5071952;28;20048;-67
2021/10/24 02:42:54;;;;;;;6.25;3.35;;;;;;;17.01;78.00;101658.03;5071176;28;20048;-68
2021/10/24 02:45:21;;;;;;;6.03;2.75;;;;;;;17.00;78.00;101662.47;5072715;28;20480;-67
2021/10/24 02:47:50;;;;;;;6.93;2.85;;;;;;;16.95;77.82;101661.59;5073702;28;20036;-67
2021/10/24 02:50:18;;;;;;;5.05;2.53;;;;;;;16.87;77.89;101662.47;5062231;28;20051;-68
2021/10/24 02:52:45;;;;;;;6.63;3.30;;;;;;;16.91;77.75;101661.56;5068084;28;20036;-68
2021/10/24 02:55:13;;;;;;;7.20;2.80;;;;;;;16.91;77.53;101666.91;5073491;28;20536;-68
2021/10/24 02:57:41;;;;;;;5.03;3.30;;;;;;;16.80;77.58;101664.22;5060986;28;20055;-68
2021/10/24 03:00:10;;;;;;;8.32;2.88;;;;;;;16.69;77.90;101669.47;5053386;28;20052;-67
2021/10/24 03:02:38;;;;;;;5.65;3.00;;;;;;;16.71;77.88;101673.03;5054713;28;20045;-68
2021/10/24 03:05:09;;;;;;;6.30;3.20;;;;;;;16.69;77.89;101666.81;5054682;28;20043;-68
2021/10/24 03:07:37;;;;;;;10.00;3.58;;;;;;;16.61;78.01;101675.63;5061234;28;20059;-67
2021/10/24 03:10:06;;;;;;;4.68;2.92;;;;;;;16.64;77.99;101667.66;5071335;28;20048;-67
2021/10/24 03:12:34;;;;;;;6.30;3.20;;;;;;;16.73;77.94;101668.63;5055815;28;20029;-67
2021/10/24 03:15:02;;;;;;;6.45;3.45;;;;;;;16.76;77.89;101666.81;5053776;28;20044;-67
2021/10/24 03:17:30;;;;;;;5.43;3.15;;;;;;;16.83;77.73;101664.19;5053473;28;20033;-67
2021/10/24 03:19:57;;;;;;;7.22;3.20;;;;;;;16.86;77.66;101672.22;5035209;28;20413;-68
2021/10/24 03:22:26;;;;;;;9.25;4.10;;;;;;;16.89;77.50;101677.56;5054364;28;20037;-67
2021/10/24 03:24:54;;;;;;;5.72;2.92;;;;;;;16.81;77.55;101675.75;5071331;28;20431;-68
2021/10/24 03:27:21;;;;;;;6.40;2.75;;;;;;;16.72;77.94;101674.84;5054167;28;20051;-67
2021/10/24 03:29:48;;;;;;;5.72;3.03;;;;;;;16.78;78.32;101681.06;5052407;28;20053;-67
2021/10/24 03:32:16;;;;;;;5.57;2.85;;;;;;;16.83;78.35;101681.97;5052332;28;20044;-67
2021/10/24 03:34:43;;;;;;;5.95;3.13;;;;;;;16.86;78.22;101679.34;5053377;28;20040;-68
2021/10/24 03:37:10;;;;;;;5.70;2.70;;;;;;;16.71;78.12;101680.16;5063722;28;20043;-67
2021/10/24 03:39:40;;;;;;;6.53;2.85;;;;;;;16.58;78.27;101680.94;5053661;28;20496;-67
2021/10/24 03:42:07;;;;;;;5.10;2.85;;;;;;;16.53;78.40;101678.25;5065078;28;20050;-68
2021/10/24 03:44:35;;;;;;;5.80;2.88;;;;;;;16.56;78.47;101685.34;5058930;28;20385;-67
2021/10/24 03:47:02;;;;;;;5.28;2.90;;;;;;;16.52;78.45;101679.13;5053011;28;20047;-68
2021/10/24 03:49:30;;;;;;;6.45;3.28;;;;;;;16.58;78.28;101681.81;5068764;28;20039;-67
2021/10/24 03:51:57;;;;;;;6.43;2.70;;;;;;;16.58;78.18;101679.16;5072990;28;20044;-67
2021/10/24 03:54:25;;;;;;;5.40;2.78;;;;;;;16.59;78.06;101690.72;5065893;28;20031;-67
2021/10/24 03:56:53;;;;;;;5.03;2.80;;;;;;;16.64;78.04;101687.22;5073273;28;20044;-68
2021/10/24 03:59:21;;;;;;;4.75;2.80;;;;;;;16.60;77.94;101685.44;5068990;28;20049;-67
2021/10/24 04:01:48;;;;;;;5.10;2.95;;;;;;;16.55;78.15;101689.78;5052987;28;20045;-67
2021/10/24 04:04:16;;;;;;;8.45;3.10;;;;;;;16.57;78.21;101692.47;5056294;28;20048;-67
2021/10/24 04:06:43;;;;;;;5.85;3.47;;;;;;;16.59;78.15;101693.38;5052502;28;20041;-68
2021/10/24 04:09:11;;;;;;;5.70;3.25;;;;;;;16.62;78.60;101694.31;5039585;28;20042;-67
2021/10/24 04:11:38;;;;;;;5.03;2.85;;;;;;;16.62;78.50;101693.41;5033615;28;20395;-67
2021/10/24 04:14:08;;;;;;;8.13;3.00;;;;;;;16.64;78.47;101689.00;5040433;28;20037;-67
2021/10/24 04:16:36;;;;;;;8.55;3.08;;;;;;;16.69;78.59;101682.81;5051750;28;20037;-67
2021/10/24 04:19:03;;;;;;;5.90;2.58;;;;;;;16.74;78.34;101683.72;5039109;28;20042;-67
2021/10/24 04:21:31;;;;;;;5.63;2.80;;;;;;;16.77;78.24;101681.94;5045910;28;20037;-67
2021/10/24 04:23:59;;;;;;;10.45;3.25;;;;;;;16.77;78.28;101685.50;5051158;28;20041;-67
2021/10/24 04:26:27;;;;;;;6.50;3.10;;;;;;;16.73;78.12;101684.63;5033834;28;20052;-68
2021/10/24 04:28:56;;;;;;;5.65;2.83;;;;;;;16.59;78.26;101683.63;5051308;28;20037;-68
2021/10/24 04:31:25;;;;;;;7.18;3.10;;;;;;;16.54;78.56;101685.34;5052158;28;20401;-67
2021/10/24 04:33:52;;;;;;;4.45;2.42;;;;;;;16.51;78.67;101680.00;5050342;28;20396;-67
2021/10/24 04:36:20;;;;;;;6.22;3.15;;;;;;;16.52;78.81;101684.47;5050389;28;20123;-67
2021/10/24 04:38:47;;;;;;;5.70;2.97;;;;;;;16.51;78.74;101687.09;5050583;28;20049;-66
2021/10/24 04:41:15;;;;;;;6.22;3.38;;;;;;;16.56;78.61;101683.59;5051502;28;20094;-67
2021/10/24 04:43:42;;;;;;;6.25;3.22;;;;;;;16.57;78.46;101681.81;5033151;28;20049;-67
2021/10/24 04:46:10;;;;;;;7.03;3.22;;;;;;;16.51;78.34;101687.09;5021335;28;20042;-67
2021/10/24 04:48:39;;;;;;;7.57;3.47;;;;;;;16.50;78.51;101693.31;5029418;28;20037;-67
2021/10/24 04:51:06;;;;;;;8.82;3.08;;;;;;;16.47;78.65;101696.88;5029925;28;20052;-67
2021/10/24 04:53:34;;;;;;;8.70;3.97;;;;;;;16.55;78.51;101699.56;5020526;28;20124;-67
2021/10/24 04:56:02;;;;;;;8.80;4.15;;;;;;;16.62;78.43;101696.09;5031280;28;20045;-68
2021/10/24 04:58:29;;;;;;;8.32;5.50;;;;;;;16.57;78.29;101696.03;5033302;28;20545;-67
2021/10/24 05:00:57;;;;;;;7.30;4.47;;;;;;;16.56;78.53;101706.69;5024340;28;20520;-67
2021/10/24 05:03:24;;;;;;;9.02;3.90;;;;;;;16.65;78.61;101706.78;5021885;28;20385;-66
2021/10/24 05:05:53;;;;;;;5.95;3.17;;;;;;;16.73;78.50;101697.97;5033990;28;20397;-68
2021/10/24 05:08:21;;;;;;;7.70;4.20;;;;;;;16.72;78.41;101709.50;5031270;28;20041;-67
2021/10/24 05:10:48;;;;;;;10.32;4.35;;;;;;;16.68;78.63;101707.69;5038604;28;20048;-67
2021/10/24 05:13:17;;;;;;;8.65;4.47;;;;;;;16.67;78.90;101705.88;5034855;28;20046;-67
2021/10/24 05:15:44;;;;;;;6.30;4.28;;;;;;;16.72;79.03;101705.94;5027377;28;20033;-67
2021/10/24 05:18:12;;;;;;;7.38;4.30;;;;;;;16.91;79.67;101707.81;5027002;28;20048;-67
2021/10/24 05:20:39;;;;;;;6.07;4.00;;;;;;;17.20;80.42;101705.25;5028945;28;20046;-67
2021/10/24 05:23:08;;;;;;;6.07;4.05;;;;;;;17.50;80.64;101707.13;5017467;28;20405;-67
2021/10/24 05:25:36;;;;;;;6.38;3.58;;;;;;;17.78;80.97;101700.09;5047054;28;20033;-67
2021/10/24 05:28:03;;;;;;;6.13;3.53;;;;;;;18.04;80.88;101714.38;5033928;28;20038;-67
2021/10/24 05:30:31;;;;;;;5.80;2.92;;;;;;;18.27;80.82;101703.66;5027095;28;20037;-67
2021/10/24 05:32:58;;;;;;;6.65;3.50;;;;;;;18.51;80.63;101714.31;5034663;28;20049;-67
2021/10/24 05:35:25;;;;;;;7.13;3.60;;;;;;;18.75;80.70;101710.75;5035127;28;20045;-67
2021/10/24 05:37:53;;;;;;;4.47;2.55;;;;;;;18.96;80.32;101710.69;5032248;28;20046;-67
2021/10/24 05:40:22;;;;;;;5.28;2.58;;;;;;;19.14;79.55;101707.03;5010831;28;20132;-66
2021/10/24 05:42:49;;;;;;;5.43;2.25;;;;;;;19.31;78.92;101714.97;5011215;28;20405;-67
2021/10/24 05:45:17;;;;;;;3.80;2.08;;;;;;;19.48;78.30;101715.84;5022628;28;20123;-66
2021/10/24 05:47:44;;;;;;;6.60;2.45;;;;;;;19.68;78.11;101713.94;5050429;28;20120;-67
2021/10/24 05:50:12;;;;;;;3.20;2.00;;;;;;;19.85;78.17;101714.69;5050400;28;20056;-67
2021/10/24 05:52:39;;;;;;;2.88;1.80;;;;;;;20.03;78.19;101719.00;5051186;28;20397;-64
2021/10/24 05:55:07;;;;;;;3.67;2.22;;;;;;;20.26;77.64;101721.50;5059771;28;20036;-67
2021/10/24 05:57:36;;;;;;;4.60;2.25;;;;;;;20.44;77.06;101718.69;5054980;28;20033;-67
2021/10/24 06:00:05;;;;;;;4.05;1.88;;;;;;;20.59;76.93;101717.66;5057211;28;20106;-66
2021/10/24 06:02:33;;;;;;;3.90;1.90;;;;;;;20.81;76.09;101713.81;5065777;28;20060;-67
2021/10/24 06:05:00;;;;;;;3.88;1.70;;;;;;;21.03;75.53;101718.03;5049064;28;20087;-67
2021/10/24 06:07:28;;;;;;;2.42;1.73;;;;;;;21.25;74.96;101724.06;5050347;28;20053;-67
2021/10/24 06:10:00;;;;;;;2.67;1.58;;;;;;;21.47;73.81;101721.97;5061931;28;20036;-67
2021/10/24 06:15:16;;;;;;;2.50;1.60;;;;;;;21.82;70.78;101710.69;5061651;28;20094;-66
2021/10/24 06:17:45;;;;;;;2.85;1.75;;;;;;;22.02;70.43;101716.69;5063766;28;20041;-66
2021/10/24 06:20:16;;;;;;;4.18;2.33;;;;;;;22.16;70.42;101728.13;5069912;28;20044;-66
2021/10/24 06:22:44;;;;;;;3.60;2.10;;;;;;;22.23;70.22;101735.16;5060835;28;20037;-67
2021/10/24 06:25:13;;;;;;;5.72;2.00;;;;;;;22.33;70.45;101727.81;5066079;28;20048;-66
2021/10/24 06:27:42;;;;;;;4.30;1.90;;;;;;;22.46;70.16;101739.25;5060592;28;20045;-66
2021/10/24 06:30:14;;;;;;;3.50;1.70;;;;;;;22.75;69.71;101736.97;5054333;28;20387;-66
2021/10/24 06:32:42;;;;;;;3.83;2.13;;;;;;;23.09;68.71;101725.53;5057433;28;20052;-67
2021/10/24 06:35:10;;;;;;;3.25;1.50;;;;;;;23.39;67.69;101739.22;5055058;28;20045;-66
2021/10/24 06:37:41;;;;;;;3.05;1.52;;;;;;;23.61;66.76;101736.09;5043926;28;20171;-67
2021/10/24 06:40:10;;;;;;;4.55;1.67;;;;;;;23.73;66.44;101742.09;5058142;28;20040;-66
2021/10/24 06:42:38;;;;;;;4.43;1.48;;;;;;;23.95;65.50;101738.91;5063611;28;20036;-67
2021/10/24 06:45:07;;;;;;;2.65;1.65;;;;;;;24.21;63.28;101740.06;5055601;28;20060;-66
2021/10/24 06:47:36;;;;;;;1.98;1.05;;;;;;;24.40;61.43;101747.69;5056398;28;20095;-67
2021/10/24 06:50:04;;;;;;;2.88;0.98;;;;;;;24.54;60.89;101746.41;5057272;28;20048;-67
2021/10/24 06:52:32;;;;;;;2.05;1.25;;;;;;;24.67;60.33;101746.09;5052568;28;20041;-67
2021/10/24 06:54:59;;;;;;;2.22;1.27;;;;;;;24.80;60.00;101756.50;5064951;28;20044;-67
2021/10/24 06:57:26;;;;;;;1.67;1.00;;;;;;;25.02;58.80;101754.13;5057757;28;20037;-66
2021/10/24 06:59:54;;;;;;;3.88;1.15;;;;;;;25.15;58.83;101751.94;5059563;28;20039;-67
2021/10/24 07:02:21;;;;;;;2.22;1.38;;;;;;;25.27;58.45;101754.31;5070131;28;20404;-66
2021/10/24 07:04:50;;;;;;;2.10;1.10;;;;;;;25.20;57.67;101753.63;5066844;28;20378;-67
2021/10/24 07:07:23;;;;;;;2.95;1.10;;;;;;;25.20;57.56;101759.03;5052827;28;20037;-66
2021/10/24 07:09:51;;;;;;;3.65;1.10;;;;;;;25.28;57.26;101756.06;5064814;28;20123;-67
2021/10/24 07:12:18;;;;;;;1.73;1.02;;;;;;;25.45;56.84;101758.28;5073251;28;20041;-67
2021/10/24 07:14:46;;;;;;;4.32;1.40;;;;;;;25.63;56.18;101758.63;5069881;28;20048;-67
2021/10/24 07:17:13;;;;;;;3.28;1.20;;;;;;;25.81;55.69;101757.16;5066463;28;20032;-67
2021/10/24 07:19:41;;;;;;;3.38;1.35;;;;;;;25.99;55.10;101769.25;5073300;28;20032;-67
2021/10/24 07:22:10;;;;;;;3.38;1.00;;;;;;;26.18;54.88;101757.78;5059653;28;20421;-67
2021/10/24 07:24:37;;;;;;;3.63;1.35;;;;;;;26.34;54.14;101762.69;5053638;28;20037;-67
2021/10/24 07:27:05;;;;;;;2.05;0.88;;;;;;;26.45;53.02;101763.22;5053062;28;20045;-67
2021/10/24 07:29:32;;;;;;;4.03;1.10;;;;;;;26.53;51.72;101756.59;5061513;28;20032;-67
2021/10/24 07:31:59;;;;;;;2.05;1.25;;;;;;;26.46;51.81;101757.75;5072068;28;20048;-67
2021/10/24 07:34:27;;;;;;;4.90;1.08;;;;;;;26.55;51.77;101754.72;5063942;28;20033;-67
2021/10/24 07:36:55;;;;;;;3.47;1.20;;;;;;;26.70;51.76;101761.44;5053385;28;20044;-67
2021/10/24 07:39:24;;;;;;;1.98;1.05;;;;;;;26.91;50.73;101763.38;5032988;28;20041;-67
2021/10/24 07:41:51;;;;;;;2.53;1.30;;;;;;;27.01;50.42;101761.25;5065445;28;20399;-67
2021/10/24 07:44:19;;;;;;;3.13;1.27;;;;;;;27.12;49.96;101772.56;5040762;28;20044;-68
2021/10/24 07:46:48;;;;;;;4.78;1.15;;;;;;;27.25;49.54;101762.16;5051792;28;20512;-67
2021/10/24 07:49:15;;;;;;;4.43;1.30;;;;;;;27.27;48.85;101758.44;5033712;28;20123;-67
2021/10/24 07:51:43;;;;;;;2.72;1.27;;;;;;;27.38;47.98;101758.91;5052813;28;20420;-67
2021/10/24 07:54:10;;;;;;;2.35;1.15;;;;;;;27.36;47.69;101763.53;5046485;28;20030;-68
2021/10/24 07:56:40;;;;;;;3.03;1.17;;;;;;;27.45;47.84;101765.00;5041492;28;20040;-68
2021/10/24 07:59:09;;;;;;;15.57;1.80;;;;;;;27.51;48.53;101772.00;5043217;28;20104;-67
2021/10/24 08:01:36;;;;;;;6.20;1.50;;;;;;;27.56;47.58;101770.94;5032768;28;20451;-68
2021/10/24 08:04:04;;;;;;;3.13;1.17;;;;;;;27.50;47.39;101778.41;5032793;28;20049;-68
2021/10/24 08:06:32;;;;;;;2.65;1.20;;;;;;;27.44;47.30;101768.63;5016505;28;20047;-67
2021/10/24 08:09:01;;;;;;;3.47;1.13;;;;;;;27.53;47.65;101772.88;5050854;28;20508;-67
2021/10/24 08:11:29;;;;;;;3.50;1.25;;;;;;;27.65;47.10;101784.13;5050510;28;20060;-67
2021/10/24 08:13:58;;;;;;;4.70;1.40;;;;;;;27.74;46.72;101774.75;5040273;28;20124;-67
2021/10/24 08:16:26;;;;;;;4.00;1.65;;;;;;;27.83;46.70;101778.94;5033576;28;20393;-66
2021/10/24 08:18:54;;;;;;;3.55;1.48;;;;;;;27.93;46.29;101777.63;5064160;28;20041;-67
2021/10/24 08:21:22;;;;;;;3.90;1.20;;;;;;;28.02;45.89;101774.53;5053318;28;20041;-67
2021/10/24 08:23:50;;;;;;;3.80;1.30;;;;;;;28.05;45.94;101772.56;5051985;28;20049;-67
2021/10/24 08:26:18;;;;;;;4.00;1.10;;;;;;;28.13;45.81;101774.97;5061124;28;20047;-67
2021/10/24 08:28:46;;;;;;;3.15;1.00;;;;;;;28.16;46.22;101774.88;5068457;28;20037;-67
2021/10/24 08:31:17;;;;;;;3.30;1.30;;;;;;;28.22;46.43;101777.38;5065157;28;20060;-66
2021/10/24 08:33:45;;;;;;;2.22;1.20;;;;;;;28.28;46.72;101771.66;5055057;28;20064;-67
2021/10/24 08:36:12;;;;;;;2.75;1.00;;;;;;;28.23;46.58;101773.66;5050519;28;20407;-67
2021/10/24 08:38:40;;;;;;;2.78;1.02;;;;;;;28.16;47.12;101780.31;5051062;28;20052;-67
2021/10/24 08:41:08;;;;;;;1.23;0.98;;;;;;;28.02;47.82;101780.84;5060202;28;20032;-67
2021/10/24 08:43:37;;;;;;;2.08;1.10;;;;;;;27.94;48.09;101780.28;5064061;28;20044;-66
2021/10/24 08:46:05;;;;;;;3.28;1.35;;;;;;;27.96;48.13;101774.78;5059481;28;20044;-67
2021/10/24 08:48:34;;;;;;;2.25;1.20;;;;;;;28.05;48.27;101785.25;5051873;28;20036;-67
2021/10/24 08:51:02;;;;;;;3.65;1.20;;;;;;;28.16;48.26;101787.59;5052079;28;20117;-66
2021/10/24 08:53:30;;;;;;;2.70;1.33;;;;;;;28.08;48.17;101772.47;5052735;28;20048;-67
2021/10/24 08:55:58;;;;;;;3.83;1.40;;;;;;;28.00;48.31;101779.13;5072085;28;20041;-66
2021/10/24 08:58:25;;;;;;;3.45;1.50;;;;;;;28.03;49.14;101765.41;5064420;28;20036;-67
2021/10/24 09:00:54;;;;;;;2.55;1.30;;;;;;;28.14;49.71;101760.50;5061443;28;20043;-66
2021/10/24 09:03:21;;;;;;;3.03;1.27;;;;;;;28.25;49.93;101758.19;5069863;28;20040;-66
2021/10/24 09:05:53;;;;;;;3.22;1.33;;;;;;;28.24;50.20;101756.44;5071851;28;20476;-67
2021/10/24 09:08:22;;;;;;;2.90;1.20;;;;;;;28.25;50.64;101752.75;5060279;28;20033;-67
2021/10/24 09:10:51;;;;;;;2.63;1.42;;;;;;;28.36;50.84;101753.19;5051294;28;20045;-66
2021/10/24 09:13:21;;;;;;;1.80;1.20;;;;;;;28.47;49.96;101745.47;5050517;28;20041;-67
2021/10/24 09:15:53;;;;;;;4.85;1.30;;;;;;;28.55;49.36;101737.84;5071093;28;20048;-66
2021/10/24 09:18:23;;;;;;;2.97;1.50;;;;;;;28.63;49.34;101734.81;5068787;28;20094;-67
2021/10/24 09:20:53;;;;;;;2.20;1.23;;;;;;;28.63;49.07;101731.19;5071509;28;20404;-66
2021/10/24 09:23:21;;;;;;;4.68;1.45;;;;;;;28.50;49.23;101731.75;5069609;28;20036;-67
2021/10/24 09:25:58;;;;;;;2.58;1.33;;;;;;;28.40;48.79;101734.94;5051371;28;20045;-66
2021/10/24 09:28:27;;;;;;;3.25;1.60;;;;;;;28.16;48.50;101736.84;5059958;28;20044;-67
2021/10/24 09:31:05;;;;;;;3.60;1.35;;;;;;;27.97;49.27;101738.53;5070434;28;20090;-66
2021/10/24 09:33:47;;;;;;;3.20;1.63;;;;;;;28.00;49.73;101747.44;5059666;28;20044;-66
2021/10/24 09:36:25;;;;;;;3.58;1.30;;;;;;;27.95;50.04;101738.63;5064872;28;20028;-67
2021/10/24 09:38:53;;;;;;;2.28;1.65;;;;;;;27.79;50.41;101739.28;5070977;28;20048;-66
2021/10/24 09:41:31;;;;;;;6.07;2.17;;;;;;;27.62;50.26;101735.41;5069845;28;20044;-66
2021/10/24 09:44:09;;;;;;;2.33;1.40;;;;;;;27.48;50.46;101729.63;5051051;28;20110;-66
2021/10/24 09:46:37;;;;;;;4.13;1.70;;;;;;;27.57;49.79;101729.25;5054581;28;20048;-66
2021/10/24 09:49:18;;;;;;;4.65;1.63;;;;;;;27.77;49.39;101723.94;5051059;28;20049;-67
2021/10/24 09:51:47;;;;;;;3.20;1.70;;;;;;;27.96;48.81;101723.19;5057926;28;20036;-67
2021/10/24 09:54:25;;;;;;;4.43;1.63;;;;;;;28.09;48.41;101725.31;5061726;28;20400;-66
2021/10/24 09:56:54;;;;;;;3.88;1.85;;;;;;;28.09;47.91;101722.59;5042707;28;20044;-66
2021/10/24 09:59:23;;;;;;;5.68;1.80;;;;;;;28.11;47.63;101722.53;5050885;28;20040;-67
2021/10/24 10:01:52;;;;;;;4.20;1.85;;;;;;;28.14;47.69;101722.47;5056962;28;20044;-67
2021/10/24 10:04:20;;;;;;;4.25;2.17;;;;;;;28.30;47.66;101715.41;5058234;28;20457;-66
2021/10/24 10:06:50;;;;;;;6.40;2.08;;;;;;;28.50;47.17;101717.28;5059687;28;20063;-66
2021/10/24 10:09:18;;;;;;;5.55;2.10;;;;;;;28.63;46.91;101720.31;5057039;28;20046;-66
2021/10/24 10:11:53;;;;;;;5.00;2.00;;;;;;;28.75;46.09;101723.41;5055364;28;20041;-66
2021/10/24 10:14:26;;;;;;;5.20;1.70;;;;;;;28.80;45.82;101723.25;5052913;28;20516;-67
2021/10/24 10:16:58;;;;;;;4.72;1.90;;;;;;;28.83;45.34;101725.81;5040624;28;20065;-66
2021/10/24 10:19:30;;;;;;;3.13;1.67;;;;;;;28.79;45.08;101725.06;5049405;28;20045;-66
2021/10/24 10:22:30;;;;;;;4.07;1.75;;;;;;;28.56;45.10;101717.00;5050269;28;20057;-66
2021/10/24 10:25:00;;;;;;;3.40;1.52;;;;;;;28.38;45.73;101709.66;5051441;28;20037;-66
2021/10/24 10:27:40;;;;;;;5.38;1.90;;;;;;;28.29;45.80;101704.66;5060271;28;20048;-66
2021/10/24 10:30:09;;;;;;;3.15;1.70;;;;;;;28.21;46.18;101713.13;5055811;28;20045;-67
2021/10/24 10:32:39;;;;;;;3.90;2.35;;;;;;;28.00;46.65;101705.81;5053909;28;20064;-67
2021/10/24 10:35:08;;;;;;;4.65;2.38;;;;;;;28.08;46.78;101706.41;5056871;28;20067;-67
2021/10/24 10:37:49;;;;;;;6.57;2.45;;;;;;;28.19;46.51;101703.25;5061487;28;20045;-66
2021/10/24 10:40:18;;;;;;;5.25;1.80;;;;;;;28.14;46.26;101704.34;5066405;28;20036;-66
2021/10/24 10:42:52;;;;;;;3.22;1.65;;;;;;;28.16;46.06;101704.25;5065616;28;20124;-66
2021/10/24 10:45:27;;;;;;;3.72;1.85;;;;;;;28.17;46.29;101697.88;5065835;28;20048;-67
2021/10/24 10:47:56;;;;;;;3.50;1.70;;;;;;;28.11;46.49;101701.69;5068773;28;20500;-66
2021/10/24 10:50:49;;;;;;;7.35;2.17;;;;;;;28.06;46.94;101689.28;5058611;28;20484;-66
2021/10/24 10:54:03;;;;;;;3.42;1.65;;;;;;;27.84;48.00;101686.56;5067729;28;20044;-66
2021/10/24 10:56:54;;;;;;;6.32;1.95;;;;;;;27.79;47.74;101690.41;5069362;28;20060;-66
2021/10/24 10:59:36;;;;;;;5.60;2.42;;;;;;;27.72;48.16;101687.97;5069573;28;20069;-66
2021/10/24 11:02:38;;;;;;;4.15;2.30;;;;;;;27.71;48.94;101691.63;5072032;28;20397;-66
2021/10/24 11:05:06;;;;;;;2.83;1.63;;;;;;;27.58;49.09;101684.91;5071642;28;20087;-66
2021/10/24 11:07:44;;;;;;;4.07;2.40;;;;;;;27.62;49.35;101678.44;5072539;28;20041;-67
2021/10/24 11:10:17;;;;;;;4.70;1.77;;;;;;;27.69;49.86;101676.34;5068067;28;20040;-67
2021/10/24 11:12:49;;;;;;;4.32;2.38;;;;;;;27.73;49.87;101673.44;5063601;28;20071;-67
2021/10/24 11:15:31;;;;;;;4.18;2.20;;;;;;;27.60;49.60;101674.00;5064749;28;20037;-66
2021/10/24 11:18:06;;;;;;;5.03;2.13;;;;;;;27.49;49.93;101660.84;5057608;28;20579;-67
2021/10/24 11:20:43;;;;;;;6.03;2.33;;;;;;;27.26;50.81;101674.44;5064480;28;20044;-67
2021/10/24 11:23:20;;;;;;;4.25;2.25;;;;;;;27.14;51.40;101674.91;5069663;28;20040;-66
2021/10/24 11:25:50;;;;;;;4.63;2.25;;;;;;;27.08;51.13;101680.56;5061956;28;20157;-67
2021/10/24 11:28:22;;;;;;;6.43;2.60;;;;;;;27.04;51.22;101674.38;5054875;28;20032;-66
2021/10/24 11:30:59;;;;;;;4.93;2.83;;;;;;;27.02;50.47;101672.66;5069748;28;20036;-66
2021/10/24 11:33:26;;;;;;;4.88;2.50;;;;;;;27.00;49.64;101670.00;5069335;28;20041;-66
2021/10/24 11:35:54;;;;;;;4.53;2.85;;;;;;;26.95;49.25;101674.72;5068804;28;20045;-66
2021/10/24 11:38:28;;;;;;;4.20;2.80;;;;;;;26.92;48.76;101670.28;5070229;28;20086;-66